METAR Data
IDs: Format: Raw Decoded Include TAF

Data at: 0254 UTC 22 Jan 2020

METAR for:KRYW (Lago Vista/Allen Arp, TX, US)
Text:KRYW 220235Z AUTO 15012G19KT 10SM -RA SCT090 BKN110 11/04 A3025 RMK AO2 T01130036
Temperature: 11.3°C ( 52°F)
Dewpoint: 3.6°C ( 38°F) [RH = 59%]
Pressure (altimeter):30.25 inches Hg (1024.5 mb)
Winds:from the SSE (150 degrees) at 14 MPH (12 knots; 6.2 m/s) gusting to 22 MPH (19 knots; 9.8 m/s)
Visibility:10 or more sm (16+ km)
Ceiling:11000 feet AGL
Clouds: scattered clouds at 9000 feet AGL, broken clouds at 11000 feet AGL
Weather:-RA (light rain)
QC Flag:automated observation with no human augmentation